This is the latest recevied weather packets stored in our database for station/object K7DC. If no packets are shown the sender has not sent any weather packets the latest 10 day(s).
| Time | Temp. | Humidity | Pressure | Rain* | Wind** | Luminosity | Snow |
|---|---|---|---|---|---|---|---|
| 1777872186 | 22.22° C | 28% | 1013.1 hPa | 0 mm | - | 0 W/m² | - |
| 1777871883 | 22.22° C | 28% | 1013.1 hPa | 0 mm | - | 0 W/m² | - |
| 1777871579 | 22.22° C | 28% | 1013 hPa | 0 mm | - | 0 W/m² | - |
| 1777871275 | 22.22° C | 28% | 1013.2 hPa | 0 mm | - | 0 W/m² | - |
| 1777870973 | 22.22° C | 28% | 1012.9 hPa | 0 mm | - | 0 W/m² | - |
| 1777870671 | 22.78° C | 28% | 1012.9 hPa | 0 mm | - | 0 W/m² | - |
| 1777870371 | 23.33° C | 28% | 1013 hPa | 0 mm | - | 0 W/m² | - |
| 1777870069 | 23.33° C | 27% | 1013.2 hPa | 0 mm | - | 0 W/m² | - |
| 1777869766 | 23.33° C | 27% | 1013.2 hPa | 0 mm | - | 0 W/m² | - |
| 1777869463 | 23.33° C | 27% | 1013.3 hPa | 0 mm | - | 0 W/m² | - |
| 1777869159 | 23.33° C | 27% | 1013.2 hPa | 0 mm | - | 0 W/m² | - |
| 1777868858 | 23.33° C | 26% | 1012.9 hPa | 0 mm | - | 0 W/m² | - |
| 1777868554 | 23.33° C | 26% | 1013.1 hPa | 0 mm | - | 0 W/m² | - |
| 1777868250 | 23.89° C | 26% | 1013.1 hPa | 0 mm | - | 0 W/m² | - |
| 1777867946 | 23.89° C | 26% | 1013.7 hPa | 0 mm | - | 0 W/m² | - |
| 1777867642 | 23.89° C | 26% | 1013.1 hPa | 0 mm | - | 0 W/m² | - |
| 1777867340 | 23.89° C | 26% | 1013 hPa | 0 mm | - | 0 W/m² | - |
| 1777867036 | 23.89° C | 25% | 1012.7 hPa | 0 mm | - | 0 W/m² | - |
| 1777866734 | 23.89° C | 25% | 1012.4 hPa | 0 mm | - | 0 W/m² | - |
| 1777866431 | 23.89° C | 25% | 1012.6 hPa | 0 mm | - | 0 W/m² | - |
| 1777865825 | 23.89° C | 24% | 1012.1 hPa | 0 mm | - | 0 W/m² | - |
| 1777865219 | 24.44° C | 24% | 1012.2 hPa | 0 mm | - | 0 W/m² | - |
| 1777864613 | 24.44° C | 23% | 1012.1 hPa | 0 mm | - | 0 W/m² | - |
| 1777847033 | 32.78° C | 13% | 1010.9 hPa | 0 mm | - | 292 W/m² | - |
| 1777845216 | 32.22° C | 15% | 1010.6 hPa | 0 mm | - | 555 W/m² | - |
* Rain latest hour (hover to see other rain measurements)
** Current wind speed in m/s (hover to see current wind gust speed)